sensor_id;sensor_type;location;lat;lon;timestamp;P1;durP1;ratioP1;P2;durP2;ratioP2
50547;SDS011;38013;48.810;8.818;2022-12-18T00:01:17;52.40;;;23.23;;
50547;SDS011;38013;48.810;8.818;2022-12-18T00:03:58;45.65;;;21.77;;
50547;SDS011;38013;48.810;8.818;2022-12-18T00:06:25;43.10;;;21.13;;
50547;SDS011;38013;48.810;8.818;2022-12-18T00:08:53;43.67;;;21.10;;
50547;SDS011;38013;48.810;8.818;2022-12-18T00:11:22;49.30;;;22.80;;
50547;SDS011;38013;48.810;8.818;2022-12-18T00:13:50;40.20;;;20.27;;
50547;SDS011;38013;48.810;8.818;2022-12-18T00:16:19;45.47;;;20.70;;
50547;SDS011;38013;48.810;8.818;2022-12-18T00:18:51;43.28;;;19.73;;
50547;SDS011;38013;48.810;8.818;2022-12-18T00:21:19;43.00;;;19.58;;
50547;SDS011;38013;48.810;8.818;2022-12-18T00:23:46;41.47;;;20.75;;
50547;SDS011;38013;48.810;8.818;2022-12-18T00:26:17;46.00;;;22.08;;
50547;SDS011;38013;48.810;8.818;2022-12-18T00:28:48;46.55;;;21.33;;
50547;SDS011;38013;48.810;8.818;2022-12-18T00:31:15;45.75;;;22.75;;
50547;SDS011;38013;48.810;8.818;2022-12-18T00:33:44;42.13;;;20.73;;
50547;SDS011;38013;48.810;8.818;2022-12-18T00:36:11;43.72;;;20.85;;
50547;SDS011;38013;48.810;8.818;2022-12-18T00:38:40;43.30;;;20.20;;
50547;SDS011;38013;48.810;8.818;2022-12-18T00:41:07;40.65;;;18.92;;
50547;SDS011;38013;48.810;8.818;2022-12-18T00:43:34;44.03;;;21.20;;
50547;SDS011;38013;48.810;8.818;2022-12-18T00:46:01;46.95;;;21.02;;
50547;SDS011;38013;48.810;8.818;2022-12-18T00:48:26;45.50;;;21.85;;
50547;SDS011;38013;48.810;8.818;2022-12-18T00:50:53;44.85;;;20.80;;
50547;SDS011;38013;48.810;8.818;2022-12-18T00:53:19;42.25;;;20.85;;
50547;SDS011;38013;48.810;8.818;2022-12-18T00:55:45;42.42;;;20.88;;
50547;SDS011;38013;48.810;8.818;2022-12-18T00:58:11;41.40;;;19.67;;
50547;SDS011;38013;48.810;8.818;2022-12-18T01:00:38;52.30;;;20.75;;
50547;SDS011;38013;48.810;8.818;2022-12-18T01:03:04;40.65;;;20.90;;
50547;SDS011;38013;48.810;8.818;2022-12-18T01:05:31;42.00;;;19.75;;
50547;SDS011;38013;48.810;8.818;2022-12-18T01:07:57;44.75;;;19.98;;
50547;SDS011;38013;48.810;8.818;2022-12-18T01:10:23;46.38;;;21.77;;
50547;SDS011;38013;48.810;8.818;2022-12-18T01:12:50;39.80;;;20.52;;
50547;SDS011;38013;48.810;8.818;2022-12-18T01:15:17;51.05;;;22.80;;
50547;SDS011;38013;48.810;8.818;2022-12-18T01:17:43;40.67;;;19.63;;
50547;SDS011;38013;48.810;8.818;2022-12-18T01:20:09;42.08;;;19.17;;
50547;SDS011;38013;48.810;8.818;2022-12-18T01:22:37;39.40;;;19.27;;
50547;SDS011;38013;48.810;8.818;2022-12-18T01:25:06;31.95;;;16.60;;
50547;SDS011;38013;48.810;8.818;2022-12-18T01:27:33;41.22;;;19.92;;
50547;SDS011;38013;48.810;8.818;2022-12-18T01:29:59;41.97;;;19.10;;
50547;SDS011;38013;48.810;8.818;2022-12-18T01:32:25;41.47;;;17.67;;
50547;SDS011;38013;48.810;8.818;2022-12-18T01:34:51;39.25;;;19.38;;
50547;SDS011;38013;48.810;8.818;2022-12-18T01:37:16;40.95;;;19.08;;
50547;SDS011;38013;48.810;8.818;2022-12-18T01:39:42;42.53;;;19.95;;
50547;SDS011;38013;48.810;8.818;2022-12-18T01:42:12;41.35;;;20.15;;
50547;SDS011;38013;48.810;8.818;2022-12-18T01:44:59;37.65;;;18.77;;
50547;SDS011;38013;48.810;8.818;2022-12-18T01:50:00;43.95;;;19.02;;
50547;SDS011;38013;48.810;8.818;2022-12-18T01:52:31;41.90;;;19.05;;
50547;SDS011;38013;48.810;8.818;2022-12-18T01:54:58;37.97;;;18.88;;
50547;SDS011;38013;48.810;8.818;2022-12-18T01:57:26;40.83;;;19.45;;
50547;SDS011;38013;48.810;8.818;2022-12-18T01:59:53;39.53;;;18.10;;
50547;SDS011;38013;48.810;8.818;2022-12-18T02:02:26;37.72;;;18.15;;
50547;SDS011;38013;48.810;8.818;2022-12-18T02:04:54;37.00;;;17.52;;
50547;SDS011;38013;48.810;8.818;2022-12-18T02:07:23;44.17;;;19.30;;
50547;SDS011;38013;48.810;8.818;2022-12-18T02:09:55;39.33;;;18.85;;
50547;SDS011;38013;48.810;8.818;2022-12-18T02:12:39;38.20;;;17.60;;
50547;SDS011;38013;48.810;8.818;2022-12-18T02:15:13;42.72;;;19.58;;
50547;SDS011;38013;48.810;8.818;2022-12-18T02:17:52;35.40;;;17.00;;
50547;SDS011;38013;48.810;8.818;2022-12-18T02:20:40;37.92;;;17.70;;
50547;SDS011;38013;48.810;8.818;2022-12-18T02:26:21;39.00;;;17.80;;
50547;SDS011;38013;48.810;8.818;2022-12-18T02:29:00;38.63;;;17.50;;
50547;SDS011;38013;48.810;8.818;2022-12-18T02:31:35;39.97;;;18.90;;
50547;SDS011;38013;48.810;8.818;2022-12-18T02:34:07;36.28;;;17.52;;
50547;SDS011;38013;48.810;8.818;2022-12-18T02:36:38;37.35;;;18.13;;
50547;SDS011;38013;48.810;8.818;2022-12-18T02:39:07;36.20;;;18.10;;
50547;SDS011;38013;48.810;8.818;2022-12-18T02:41:40;39.63;;;19.05;;
50547;SDS011;38013;48.810;8.818;2022-12-18T02:44:08;42.20;;;18.67;;
50547;SDS011;38013;48.810;8.818;2022-12-18T02:52:12;38.38;;;17.73;;
50547;SDS011;38013;48.810;8.818;2022-12-18T03:03:29;39.63;;;18.58;;
50547;SDS011;38013;48.810;8.818;2022-12-18T03:06:14;34.28;;;16.83;;
50547;SDS011;38013;48.810;8.818;2022-12-18T03:08:50;35.72;;;16.35;;
50547;SDS011;38013;48.810;8.818;2022-12-18T03:11:23;35.45;;;16.65;;
50547;SDS011;38013;48.810;8.818;2022-12-18T03:14:12;35.42;;;17.13;;
50547;SDS011;38013;48.810;8.818;2022-12-18T03:16:41;37.80;;;16.58;;
50547;SDS011;38013;48.810;8.818;2022-12-18T03:19:16;34.05;;;16.15;;
50547;SDS011;38013;48.810;8.818;2022-12-18T03:21:50;34.15;;;16.77;;
50547;SDS011;38013;48.810;8.818;2022-12-18T03:24:22;36.30;;;16.77;;
50547;SDS011;38013;48.810;8.818;2022-12-18T03:26:54;34.80;;;15.95;;
50547;SDS011;38013;48.810;8.818;2022-12-18T03:29:36;33.80;;;16.90;;
50547;SDS011;38013;48.810;8.818;2022-12-18T03:32:24;34.05;;;17.02;;
50547;SDS011;38013;48.810;8.818;2022-12-18T03:34:58;34.08;;;16.55;;
50547;SDS011;38013;48.810;8.818;2022-12-18T03:37:31;35.78;;;16.35;;
50547;SDS011;38013;48.810;8.818;2022-12-18T03:39:58;32.33;;;17.30;;
50547;SDS011;38013;48.810;8.818;2022-12-18T03:42:28;32.38;;;15.88;;
50547;SDS011;38013;48.810;8.818;2022-12-18T03:45:09;38.40;;;17.40;;
50547;SDS011;38013;48.810;8.818;2022-12-18T03:47:53;32.40;;;15.52;;
50547;SDS011;38013;48.810;8.818;2022-12-18T03:53:29;36.88;;;16.80;;
50547;SDS011;38013;48.810;8.818;2022-12-18T03:56:01;33.15;;;16.10;;
50547;SDS011;38013;48.810;8.818;2022-12-18T03:58:34;32.10;;;14.75;;
50547;SDS011;38013;48.810;8.818;2022-12-18T04:01:17;33.42;;;15.57;;
50547;SDS011;38013;48.810;8.818;2022-12-18T04:03:46;28.80;;;15.13;;
50547;SDS011;38013;48.810;8.818;2022-12-18T04:06:16;34.92;;;15.95;;
50547;SDS011;38013;48.810;8.818;2022-12-18T04:08:43;32.03;;;16.40;;
50547;SDS011;38013;48.810;8.818;2022-12-18T04:11:13;32.25;;;16.08;;
50547;SDS011;38013;48.810;8.818;2022-12-18T04:13:40;29.25;;;15.88;;
50547;SDS011;38013;48.810;8.818;2022-12-18T04:16:14;29.10;;;14.85;;
50547;SDS011;38013;48.810;8.818;2022-12-18T04:18:42;29.83;;;15.77;;
50547;SDS011;38013;48.810;8.818;2022-12-18T04:21:09;31.92;;;15.77;;
50547;SDS011;38013;48.810;8.818;2022-12-18T04:23:36;35.22;;;16.55;;
50547;SDS011;38013;48.810;8.818;2022-12-18T04:26:01;33.40;;;16.40;;
50547;SDS011;38013;48.810;8.818;2022-12-18T04:28:46;31.58;;;15.93;;
50547;SDS011;38013;48.810;8.818;2022-12-18T04:31:12;33.03;;;15.90;;
50547;SDS011;38013;48.810;8.818;2022-12-18T04:33:38;31.80;;;15.45;;
50547;SDS011;38013;48.810;8.818;2022-12-18T04:36:05;32.75;;;15.43;;
50547;SDS011;38013;48.810;8.818;2022-12-18T04:38:31;30.65;;;15.25;;
50547;SDS011;38013;48.810;8.818;2022-12-18T04:41:03;35.92;;;18.48;;
50547;SDS011;38013;48.810;8.818;2022-12-18T04:43:30;35.97;;;18.45;;
50547;SDS011;38013;48.810;8.818;2022-12-18T04:46:01;34.15;;;18.05;;
50547;SDS011;38013;48.810;8.818;2022-12-18T04:48:29;32.17;;;16.58;;
50547;SDS011;38013;48.810;8.818;2022-12-18T04:50:54;30.50;;;16.02;;
50547;SDS011;38013;48.810;8.818;2022-12-18T04:53:20;32.47;;;15.85;;
50547;SDS011;38013;48.810;8.818;2022-12-18T04:55:46;29.73;;;15.43;;
50547;SDS011;38013;48.810;8.818;2022-12-18T04:58:12;28.98;;;13.63;;
50547;SDS011;38013;48.810;8.818;2022-12-18T05:00:37;28.48;;;15.38;;
50547;SDS011;38013;48.810;8.818;2022-12-18T05:03:03;28.70;;;14.38;;
50547;SDS011;38013;48.810;8.818;2022-12-18T05:05:29;29.35;;;14.13;;
50547;SDS011;38013;48.810;8.818;2022-12-18T05:07:54;31.05;;;15.00;;
50547;SDS011;38013;48.810;8.818;2022-12-18T05:10:20;29.52;;;14.20;;
50547;SDS011;38013;48.810;8.818;2022-12-18T05:12:46;28.50;;;14.70;;
50547;SDS011;38013;48.810;8.818;2022-12-18T05:15:27;28.85;;;14.15;;
50547;SDS011;38013;48.810;8.818;2022-12-18T05:17:57;27.55;;;13.63;;
50547;SDS011;38013;48.810;8.818;2022-12-18T05:20:23;26.55;;;13.55;;
50547;SDS011;38013;48.810;8.818;2022-12-18T05:22:50;28.95;;;13.55;;
50547;SDS011;38013;48.810;8.818;2022-12-18T05:25:17;26.70;;;14.52;;
50547;SDS011;38013;48.810;8.818;2022-12-18T05:27:43;29.05;;;13.85;;
50547;SDS011;38013;48.810;8.818;2022-12-18T05:30:10;29.88;;;14.70;;
50547;SDS011;38013;48.810;8.818;2022-12-18T05:32:37;24.88;;;13.45;;
50547;SDS011;38013;48.810;8.818;2022-12-18T05:35:04;27.52;;;13.88;;
50547;SDS011;38013;48.810;8.818;2022-12-18T05:37:30;27.60;;;13.60;;
50547;SDS011;38013;48.810;8.818;2022-12-18T05:39:56;25.33;;;13.27;;
50547;SDS011;38013;48.810;8.818;2022-12-18T05:42:22;25.55;;;13.23;;
50547;SDS011;38013;48.810;8.818;2022-12-18T05:44:48;26.92;;;13.32;;
50547;SDS011;38013;48.810;8.818;2022-12-18T05:47:13;27.45;;;13.68;;
50547;SDS011;38013;48.810;8.818;2022-12-18T05:49:39;25.92;;;13.48;;
50547;SDS011;38013;48.810;8.818;2022-12-18T05:52:05;29.40;;;14.82;;
50547;SDS011;38013;48.810;8.818;2022-12-18T05:54:31;26.02;;;12.27;;
50547;SDS011;38013;48.810;8.818;2022-12-18T05:56:57;27.63;;;14.23;;
50547;SDS011;38013;48.810;8.818;2022-12-18T05:59:23;23.23;;;12.57;;
50547;SDS011;38013;48.810;8.818;2022-12-18T06:01:49;25.70;;;12.65;;
50547;SDS011;38013;48.810;8.818;2022-12-18T06:04:15;29.70;;;15.07;;
50547;SDS011;38013;48.810;8.818;2022-12-18T06:06:41;28.77;;;14.00;;
50547;SDS011;38013;48.810;8.818;2022-12-18T06:09:06;27.60;;;13.63;;
50547;SDS011;38013;48.810;8.818;2022-12-18T06:11:33;30.25;;;15.32;;
50547;SDS011;38013;48.810;8.818;2022-12-18T06:14:00;29.30;;;14.52;;
50547;SDS011;38013;48.810;8.818;2022-12-18T06:16:28;31.80;;;14.77;;
50547;SDS011;38013;48.810;8.818;2022-12-18T06:18:58;29.25;;;14.10;;
50547;SDS011;38013;48.810;8.818;2022-12-18T06:21:25;29.23;;;13.82;;
50547;SDS011;38013;48.810;8.818;2022-12-18T06:23:51;33.33;;;15.45;;
50547;SDS011;38013;48.810;8.818;2022-12-18T06:26:17;31.77;;;15.07;;
50547;SDS011;38013;48.810;8.818;2022-12-18T06:28:43;31.48;;;14.48;;
50547;SDS011;38013;48.810;8.818;2022-12-18T06:31:09;31.55;;;15.65;;
50547;SDS011;38013;48.810;8.818;2022-12-18T06:33:35;31.50;;;15.43;;
50547;SDS011;38013;48.810;8.818;2022-12-18T06:36:06;33.22;;;15.73;;
50547;SDS011;38013;48.810;8.818;2022-12-18T06:38:36;35.30;;;15.98;;
50547;SDS011;38013;48.810;8.818;2022-12-18T06:43:40;31.42;;;14.23;;
50547;SDS011;38013;48.810;8.818;2022-12-18T06:46:06;36.03;;;14.63;;
50547;SDS011;38013;48.810;8.818;2022-12-18T06:48:32;33.08;;;15.50;;
50547;SDS011;38013;48.810;8.818;2022-12-18T06:50:58;33.72;;;15.10;;
50547;SDS011;38013;48.810;8.818;2022-12-18T06:53:24;35.72;;;16.38;;
50547;SDS011;38013;48.810;8.818;2022-12-18T06:55:50;35.05;;;15.73;;
50547;SDS011;38013;48.810;8.818;2022-12-18T06:58:16;32.22;;;15.52;;
50547;SDS011;38013;48.810;8.818;2022-12-18T07:00:42;31.55;;;14.70;;
50547;SDS011;38013;48.810;8.818;2022-12-18T07:03:08;33.97;;;16.25;;
50547;SDS011;38013;48.810;8.818;2022-12-18T07:05:34;36.58;;;16.90;;
50547;SDS011;38013;48.810;8.818;2022-12-18T07:08:05;36.25;;;16.67;;
50547;SDS011;38013;48.810;8.818;2022-12-18T07:10:31;34.25;;;15.88;;
50547;SDS011;38013;48.810;8.818;2022-12-18T07:12:57;40.53;;;17.95;;
50547;SDS011;38013;48.810;8.818;2022-12-18T07:15:23;33.38;;;15.70;;
50547;SDS011;38013;48.810;8.818;2022-12-18T07:17:49;38.45;;;17.50;;
50547;SDS011;38013;48.810;8.818;2022-12-18T07:20:14;31.27;;;15.48;;
50547;SDS011;38013;48.810;8.818;2022-12-18T07:22:40;38.15;;;16.80;;
50547;SDS011;38013;48.810;8.818;2022-12-18T07:25:06;35.45;;;16.73;;
50547;SDS011;38013;48.810;8.818;2022-12-18T07:27:32;32.13;;;14.52;;
50547;SDS011;38013;48.810;8.818;2022-12-18T07:29:58;37.80;;;17.45;;
50547;SDS011;38013;48.810;8.818;2022-12-18T07:32:23;38.78;;;17.08;;
50547;SDS011;38013;48.810;8.818;2022-12-18T07:34:49;39.22;;;18.17;;
50547;SDS011;38013;48.810;8.818;2022-12-18T07:37:15;43.40;;;19.20;;
50547;SDS011;38013;48.810;8.818;2022-12-18T07:39:41;42.25;;;18.90;;
50547;SDS011;38013;48.810;8.818;2022-12-18T07:42:09;43.78;;;19.75;;
50547;SDS011;38013;48.810;8.818;2022-12-18T07:44:53;44.90;;;18.80;;
50547;SDS011;38013;48.810;8.818;2022-12-18T07:47:19;50.45;;;19.48;;
50547;SDS011;38013;48.810;8.818;2022-12-18T07:49:45;50.30;;;21.20;;
50547;SDS011;38013;48.810;8.818;2022-12-18T07:52:11;47.70;;;20.20;;
50547;SDS011;38013;48.810;8.818;2022-12-18T07:54:37;47.15;;;21.17;;
50547;SDS011;38013;48.810;8.818;2022-12-18T07:57:03;40.33;;;17.73;;
50547;SDS011;38013;48.810;8.818;2022-12-18T07:59:29;32.70;;;16.17;;
50547;SDS011;38013;48.810;8.818;2022-12-18T08:01:55;34.92;;;16.63;;
50547;SDS011;38013;48.810;8.818;2022-12-18T08:04:21;36.15;;;16.77;;
50547;SDS011;38013;48.810;8.818;2022-12-18T08:06:47;36.80;;;17.00;;
50547;SDS011;38013;48.810;8.818;2022-12-18T08:09:12;33.95;;;17.15;;
50547;SDS011;38013;48.810;8.818;2022-12-18T08:11:38;36.47;;;18.52;;
50547;SDS011;38013;48.810;8.818;2022-12-18T08:14:04;36.55;;;17.50;;
50547;SDS011;38013;48.810;8.818;2022-12-18T08:16:30;37.30;;;17.00;;
50547;SDS011;38013;48.810;8.818;2022-12-18T08:18:55;33.17;;;16.08;;
50547;SDS011;38013;48.810;8.818;2022-12-18T08:21:28;36.35;;;16.75;;
50547;SDS011;38013;48.810;8.818;2022-12-18T08:23:56;30.52;;;15.85;;
50547;SDS011;38013;48.810;8.818;2022-12-18T08:26:26;36.35;;;16.10;;
50547;SDS011;38013;48.810;8.818;2022-12-18T08:28:55;32.25;;;15.70;;
50547;SDS011;38013;48.810;8.818;2022-12-18T08:31:22;34.63;;;17.25;;
50547;SDS011;38013;48.810;8.818;2022-12-18T08:33:50;36.47;;;16.35;;
50547;SDS011;38013;48.810;8.818;2022-12-18T08:36:18;32.80;;;17.08;;
50547;SDS011;38013;48.810;8.818;2022-12-18T08:38:44;35.83;;;17.27;;
50547;SDS011;38013;48.810;8.818;2022-12-18T08:41:12;37.83;;;18.10;;
50547;SDS011;38013;48.810;8.818;2022-12-18T08:43:40;38.72;;;18.17;;
50547;SDS011;38013;48.810;8.818;2022-12-18T08:46:25;38.35;;;17.08;;
50547;SDS011;38013;48.810;8.818;2022-12-18T08:48:53;34.13;;;16.35;;
50547;SDS011;38013;48.810;8.818;2022-12-18T08:51:20;37.30;;;18.23;;
50547;SDS011;38013;48.810;8.818;2022-12-18T08:53:46;35.22;;;18.77;;
50547;SDS011;38013;48.810;8.818;2022-12-18T08:56:13;33.75;;;17.13;;
50547;SDS011;38013;48.810;8.818;2022-12-18T08:58:40;37.13;;;17.00;;
50547;SDS011;38013;48.810;8.818;2022-12-18T09:01:07;33.33;;;16.67;;
50547;SDS011;38013;48.810;8.818;2022-12-18T09:03:36;35.00;;;17.77;;
50547;SDS011;38013;48.810;8.818;2022-12-18T09:06:03;35.75;;;17.85;;
50547;SDS011;38013;48.810;8.818;2022-12-18T09:08:29;36.15;;;17.52;;
50547;SDS011;38013;48.810;8.818;2022-12-18T09:10:55;33.97;;;17.60;;
50547;SDS011;38013;48.810;8.818;2022-12-18T09:13:21;36.05;;;18.05;;
50547;SDS011;38013;48.810;8.818;2022-12-18T09:15:49;34.28;;;16.63;;
50547;SDS011;38013;48.810;8.818;2022-12-18T09:18:18;33.65;;;16.10;;
50547;SDS011;38013;48.810;8.818;2022-12-18T09:20:46;32.72;;;16.80;;
50547;SDS011;38013;48.810;8.818;2022-12-18T09:23:12;34.25;;;17.00;;
50547;SDS011;38013;48.810;8.818;2022-12-18T09:25:38;34.00;;;16.58;;
50547;SDS011;38013;48.810;8.818;2022-12-18T09:28:14;35.28;;;17.45;;
50547;SDS011;38013;48.810;8.818;2022-12-18T09:30:43;35.00;;;16.83;;
50547;SDS011;38013;48.810;8.818;2022-12-18T09:33:14;30.23;;;15.80;;
50547;SDS011;38013;48.810;8.818;2022-12-18T09:35:42;32.65;;;16.23;;
50547;SDS011;38013;48.810;8.818;2022-12-18T09:38:11;34.13;;;18.25;;
50547;SDS011;38013;48.810;8.818;2022-12-18T09:40:43;32.28;;;15.93;;
50547;SDS011;38013;48.810;8.818;2022-12-18T09:43:28;33.83;;;17.60;;
50547;SDS011;38013;48.810;8.818;2022-12-18T09:46:30;32.08;;;16.83;;
50547;SDS011;38013;48.810;8.818;2022-12-18T09:49:03;33.15;;;16.83;;
50547;SDS011;38013;48.810;8.818;2022-12-18T09:51:39;33.67;;;16.65;;
50547;SDS011;38013;48.810;8.818;2022-12-18T09:54:34;32.83;;;16.52;;
50547;SDS011;38013;48.810;8.818;2022-12-18T09:57:18;32.70;;;17.02;;
50547;SDS011;38013;48.810;8.818;2022-12-18T09:59:55;31.65;;;16.77;;
50547;SDS011;38013;48.810;8.818;2022-12-18T10:02:36;34.22;;;17.02;;
50547;SDS011;38013;48.810;8.818;2022-12-18T10:06:04;30.73;;;16.55;;
50547;SDS011;38013;48.810;8.818;2022-12-18T10:10:57;31.08;;;16.90;;
50547;SDS011;38013;48.810;8.818;2022-12-18T10:14:01;34.28;;;17.58;;
50547;SDS011;38013;48.810;8.818;2022-12-18T10:16:51;32.20;;;16.45;;
50547;SDS011;38013;48.810;8.818;2022-12-18T10:25:28;30.60;;;15.95;;
50547;SDS011;38013;48.810;8.818;2022-12-18T10:28:00;30.95;;;16.15;;
50547;SDS011;38013;48.810;8.818;2022-12-18T10:30:38;32.10;;;16.60;;
50547;SDS011;38013;48.810;8.818;2022-12-18T10:33:05;31.77;;;16.98;;
50547;SDS011;38013;48.810;8.818;2022-12-18T10:35:35;31.35;;;16.30;;
50547;SDS011;38013;48.810;8.818;2022-12-18T10:40:57;33.75;;;16.17;;
50547;SDS011;38013;48.810;8.818;2022-12-18T10:43:32;29.70;;;16.08;;
50547;SDS011;38013;48.810;8.818;2022-12-18T10:48:47;31.10;;;16.13;;
50547;SDS011;38013;48.810;8.818;2022-12-18T10:51:54;29.30;;;15.48;;
50547;SDS011;38013;48.810;8.818;2022-12-18T10:54:17;28.52;;;15.55;;
50547;SDS011;38013;48.810;8.818;2022-12-18T10:56:47;29.05;;;15.48;;
50547;SDS011;38013;48.810;8.818;2022-12-18T10:59:14;31.70;;;15.95;;
50547;SDS011;38013;48.810;8.818;2022-12-18T11:01:49;32.17;;;16.75;;
50547;SDS011;38013;48.810;8.818;2022-12-18T11:06:57;27.98;;;14.60;;
50547;SDS011;38013;48.810;8.818;2022-12-18T11:09:35;27.77;;;15.02;;
50547;SDS011;38013;48.810;8.818;2022-12-18T11:17:18;29.80;;;15.90;;
50547;SDS011;38013;48.810;8.818;2022-12-18T11:19:58;30.58;;;16.23;;
50547;SDS011;38013;48.810;8.818;2022-12-18T11:22:26;31.58;;;16.85;;
50547;SDS011;38013;48.810;8.818;2022-12-18T11:24:56;30.15;;;15.35;;
50547;SDS011;38013;48.810;8.818;2022-12-18T11:27:24;31.55;;;17.33;;
50547;SDS011;38013;48.810;8.818;2022-12-18T11:29:50;30.80;;;17.00;;
50547;SDS011;38013;48.810;8.818;2022-12-18T11:32:24;32.85;;;17.20;;
50547;SDS011;38013;48.810;8.818;2022-12-18T11:35:03;30.13;;;15.93;;
50547;SDS011;38013;48.810;8.818;2022-12-18T11:38:04;30.70;;;15.57;;
50547;SDS011;38013;48.810;8.818;2022-12-18T11:43:38;31.60;;;17.08;;
50547;SDS011;38013;48.810;8.818;2022-12-18T11:48:58;29.08;;;14.90;;
50547;SDS011;38013;48.810;8.818;2022-12-18T11:51:36;28.80;;;15.90;;
50547;SDS011;38013;48.810;8.818;2022-12-18T11:54:12;31.30;;;16.05;;
50547;SDS011;38013;48.810;8.818;2022-12-18T11:56:44;31.83;;;17.38;;
50547;SDS011;38013;48.810;8.818;2022-12-18T11:59:23;28.50;;;15.40;;
50547;SDS011;38013;48.810;8.818;2022-12-18T12:02:34;29.95;;;15.82;;
50547;SDS011;38013;48.810;8.818;2022-12-18T12:07:57;31.08;;;16.98;;
50547;SDS011;38013;48.810;8.818;2022-12-18T12:14:05;32.88;;;17.73;;
50547;SDS011;38013;48.810;8.818;2022-12-18T12:17:00;36.35;;;17.45;;
50547;SDS011;38013;48.810;8.818;2022-12-18T12:22:57;31.67;;;15.93;;
50547;SDS011;38013;48.810;8.818;2022-12-18T12:28:09;34.92;;;17.60;;
50547;SDS011;38013;48.810;8.818;2022-12-18T12:31:03;35.20;;;17.67;;
50547;SDS011;38013;48.810;8.818;2022-12-18T12:33:42;37.75;;;18.10;;
50547;SDS011;38013;48.810;8.818;2022-12-18T12:39:47;35.17;;;17.88;;
50547;SDS011;38013;48.810;8.818;2022-12-18T12:48:54;37.20;;;17.58;;
50547;SDS011;38013;48.810;8.818;2022-12-18T12:51:17;35.47;;;18.48;;
50547;SDS011;38013;48.810;8.818;2022-12-18T12:53:58;37.13;;;18.17;;
50547;SDS011;38013;48.810;8.818;2022-12-18T12:56:36;40.75;;;20.02;;
50547;SDS011;38013;48.810;8.818;2022-12-18T13:02:22;33.78;;;17.77;;
50547;SDS011;38013;48.810;8.818;2022-12-18T13:05:19;36.17;;;17.80;;
50547;SDS011;38013;48.810;8.818;2022-12-18T13:08:26;33.08;;;17.77;;
50547;SDS011;38013;48.810;8.818;2022-12-18T13:10:57;37.70;;;18.58;;
50547;SDS011;38013;48.810;8.818;2022-12-18T13:13:55;36.25;;;17.83;;
50547;SDS011;38013;48.810;8.818;2022-12-18T13:16:25;34.67;;;16.98;;
50547;SDS011;38013;48.810;8.818;2022-12-18T13:18:57;36.53;;;17.38;;
50547;SDS011;38013;48.810;8.818;2022-12-18T13:23:54;39.65;;;18.60;;
50547;SDS011;38013;48.810;8.818;2022-12-18T13:28:52;35.83;;;18.55;;
50547;SDS011;38013;48.810;8.818;2022-12-18T13:34:11;38.63;;;19.65;;
50547;SDS011;38013;48.810;8.818;2022-12-18T13:36:42;37.08;;;18.17;;
50547;SDS011;38013;48.810;8.818;2022-12-18T13:41:50;39.65;;;19.63;;
50547;SDS011;38013;48.810;8.818;2022-12-18T13:44:58;45.92;;;21.67;;
50547;SDS011;38013;48.810;8.818;2022-12-18T13:47:42;44.55;;;21.05;;
50547;SDS011;38013;48.810;8.818;2022-12-18T13:50:09;45.83;;;19.65;;
50547;SDS011;38013;48.810;8.818;2022-12-18T13:52:50;35.95;;;18.67;;
50547;SDS011;38013;48.810;8.818;2022-12-18T13:55:18;36.40;;;18.67;;
50547;SDS011;38013;48.810;8.818;2022-12-18T13:57:46;39.88;;;19.75;;
50547;SDS011;38013;48.810;8.818;2022-12-18T14:00:16;36.50;;;19.38;;
50547;SDS011;38013;48.810;8.818;2022-12-18T14:02:48;38.00;;;18.90;;
50547;SDS011;38013;48.810;8.818;2022-12-18T14:05:28;38.38;;;18.65;;
50547;SDS011;38013;48.810;8.818;2022-12-18T14:08:01;38.13;;;19.02;;
50547;SDS011;38013;48.810;8.818;2022-12-18T14:10:33;40.28;;;19.67;;
50547;SDS011;38013;48.810;8.818;2022-12-18T14:13:02;40.90;;;20.88;;
50547;SDS011;38013;48.810;8.818;2022-12-18T14:15:32;37.78;;;19.65;;
50547;SDS011;38013;48.810;8.818;2022-12-18T14:21:18;33.22;;;18.00;;
50547;SDS011;38013;48.810;8.818;2022-12-18T14:23:49;37.00;;;18.67;;
50547;SDS011;38013;48.810;8.818;2022-12-18T14:26:29;36.35;;;17.73;;
50547;SDS011;38013;48.810;8.818;2022-12-18T14:28:57;37.83;;;18.25;;
50547;SDS011;38013;48.810;8.818;2022-12-18T14:31:27;37.58;;;18.77;;
50547;SDS011;38013;48.810;8.818;2022-12-18T14:33:55;34.83;;;18.80;;
50547;SDS011;38013;48.810;8.818;2022-12-18T14:36:22;36.58;;;18.48;;
50547;SDS011;38013;48.810;8.818;2022-12-18T14:38:54;39.70;;;19.48;;
50547;SDS011;38013;48.810;8.818;2022-12-18T14:41:22;40.92;;;18.95;;
50547;SDS011;38013;48.810;8.818;2022-12-18T14:43:50;41.65;;;18.25;;
50547;SDS011;38013;48.810;8.818;2022-12-18T14:51:47;36.50;;;18.38;;
50547;SDS011;38013;48.810;8.818;2022-12-18T14:54:19;34.85;;;17.33;;
50547;SDS011;38013;48.810;8.818;2022-12-18T14:59:51;32.53;;;17.48;;
50547;SDS011;38013;48.810;8.818;2022-12-18T15:02:21;32.75;;;17.10;;
50547;SDS011;38013;48.810;8.818;2022-12-18T15:07:41;34.80;;;17.55;;
50547;SDS011;38013;48.810;8.818;2022-12-18T15:17:58;37.05;;;18.92;;
50547;SDS011;38013;48.810;8.818;2022-12-18T15:23:28;33.88;;;17.98;;
50547;SDS011;38013;48.810;8.818;2022-12-18T15:25:56;39.63;;;19.17;;
50547;SDS011;38013;48.810;8.818;2022-12-18T15:28:34;35.83;;;18.38;;
50547;SDS011;38013;48.810;8.818;2022-12-18T15:33:37;36.75;;;19.63;;
50547;SDS011;38013;48.810;8.818;2022-12-18T15:36:15;39.55;;;19.55;;
50547;SDS011;38013;48.810;8.818;2022-12-18T15:38:45;43.60;;;21.42;;
50547;SDS011;38013;48.810;8.818;2022-12-18T15:41:16;41.55;;;21.17;;
50547;SDS011;38013;48.810;8.818;2022-12-18T15:43:44;40.80;;;20.35;;
50547;SDS011;38013;48.810;8.818;2022-12-18T15:46:12;44.63;;;23.17;;
50547;SDS011;38013;48.810;8.818;2022-12-18T15:48:41;45.25;;;23.23;;
50547;SDS011;38013;48.810;8.818;2022-12-18T15:53:58;43.05;;;22.60;;
50547;SDS011;38013;48.810;8.818;2022-12-18T15:56:28;47.47;;;25.13;;
50547;SDS011;38013;48.810;8.818;2022-12-18T15:59:16;51.10;;;26.02;;
50547;SDS011;38013;48.810;8.818;2022-12-18T16:01:46;40.60;;;21.27;;
50547;SDS011;38013;48.810;8.818;2022-12-18T16:04:15;39.00;;;20.42;;
50547;SDS011;38013;48.810;8.818;2022-12-18T16:06:45;35.70;;;19.35;;
50547;SDS011;38013;48.810;8.818;2022-12-18T16:09:11;35.85;;;19.48;;
50547;SDS011;38013;48.810;8.818;2022-12-18T16:11:37;36.03;;;19.10;;
50547;SDS011;38013;48.810;8.818;2022-12-18T16:16:48;31.27;;;16.75;;
50547;SDS011;38013;48.810;8.818;2022-12-18T16:19:17;31.48;;;16.13;;
50547;SDS011;38013;48.810;8.818;2022-12-18T16:21:43;33.03;;;17.30;;
50547;SDS011;38013;48.810;8.818;2022-12-18T16:24:17;34.67;;;18.00;;
50547;SDS011;38013;48.810;8.818;2022-12-18T16:26:48;35.42;;;18.23;;
50547;SDS011;38013;48.810;8.818;2022-12-18T16:29:16;34.47;;;18.27;;
50547;SDS011;38013;48.810;8.818;2022-12-18T16:31:42;35.45;;;18.58;;
50547;SDS011;38013;48.810;8.818;2022-12-18T16:34:19;36.60;;;18.40;;
50547;SDS011;38013;48.810;8.818;2022-12-18T16:36:50;34.05;;;18.10;;
50547;SDS011;38013;48.810;8.818;2022-12-18T16:39:16;58.90;;;31.92;;
50547;SDS011;38013;48.810;8.818;2022-12-18T16:41:42;44.67;;;22.45;;
50547;SDS011;38013;48.810;8.818;2022-12-18T16:44:09;41.00;;;20.73;;
50547;SDS011;38013;48.810;8.818;2022-12-18T16:46:35;40.38;;;20.17;;